Time;durP1;ratioP1;P1;durP2;ratioP2;P2;SDS_P1;SDS_P2;PMS_P1;PMS_P2;Temp;Humidity;BMP_temperature;BMP_pressure;BME280_temperature;BME280_humidity;BME280_pressure;Samples;Min_cycle;Max_cycle;Signal;HPM_P1;HPM_P2
2022/02/15 06:33:27;;;;;;;14.00;9.57;;;;;;;6.72;75.35;100074.31;5036599;28;20316;-82
2022/02/15 06:35:54;;;;;;;13.17;9.83;;;;;;;6.72;75.41;100078.78;5031695;28;21245;-81
2022/02/15 06:38:20;;;;;;;11.30;9.33;;;;;;;6.71;75.55;100077.91;5031182;28;20236;-83
2022/02/15 06:40:47;;;;;;;13.97;10.07;;;;;;;6.72;75.49;100089.34;5026979;28;20293;-81
2022/02/15 06:43:14;;;;;;;13.73;9.37;;;;;;;6.73;75.37;100091.06;5024595;28;20210;-80
2022/02/15 06:45:40;;;;;;;14.20;10.77;;;;;;;6.74;75.22;100090.13;5024278;28;20210;-81
2022/02/15 06:48:07;;;;;;;14.17;10.03;;;;;;;6.75;75.25;100091.84;5029248;28;20250;-80
2022/02/15 06:50:34;;;;;;;16.43;10.30;;;;;;;6.73;75.36;100097.22;5026546;28;21037;-81
2022/02/15 06:53:01;;;;;;;13.87;11.43;;;;;;;6.73;75.92;100099.84;5038030;28;20226;-82
2022/02/15 06:55:28;;;;;;;14.60;10.60;;;;;;;6.72;75.14;100097.28;5042254;28;20216;-82
2022/02/15 06:57:54;;;;;;;16.10;11.23;;;;;;;6.73;75.79;100102.50;5036725;28;20302;-80
2022/02/15 07:00:21;;;;;;;13.93;10.70;;;;;;;6.75;75.50;100108.56;5043750;28;20212;-80
2022/02/15 07:02:47;;;;;;;15.10;10.97;;;;;;;6.75;75.46;100110.34;5036084;28;20202;-84
2022/02/15 07:05:14;;;;;;;13.33;10.53;;;;;;;6.74;75.69;100109.50;5031106;28;20205;-85
2022/02/15 07:07:43;;;;;;;15.63;11.23;;;;;;;6.75;75.29;100118.28;5033547;28;20252;-84
2022/02/15 07:10:12;;;;;;;15.97;11.47;;;;;;;6.74;75.91;100114.78;5027163;28;20210;-80
2022/02/15 07:12:38;;;;;;;15.80;11.10;;;;;;;6.74;75.49;100120.09;5025132;28;20231;-82
2022/02/15 07:15:06;;;;;;;16.27;11.50;;;;;;;6.74;75.34;100130.69;5023761;28;20203;-81
2022/02/15 07:17:36;;;;;;;16.60;11.30;;;;;;;6.73;75.74;100128.97;5022445;28;20947;-82
2022/02/15 07:20:02;;;;;;;17.37;10.93;;;;;;;6.73;75.74;100128.97;5028844;28;20206;-81
2022/02/15 07:22:29;;;;;;;23.17;11.57;;;;;;;6.73;75.45;100139.56;5024789;28;20222;-81
2022/02/15 07:25:00;;;;;;;16.07;11.30;;;;;;;6.74;75.54;100141.25;5027285;28;20190;-79
2022/02/15 07:27:27;;;;;;;16.70;11.13;;;;;;;6.75;75.85;100147.41;5023081;28;20225;-79
2022/02/15 07:29:55;;;;;;;12.20;10.70;;;;;;;6.74;76.25;100151.00;5024492;28;20202;-79
2022/02/15 07:32:24;;;;;;;14.40;11.43;;;;;;;6.74;75.83;100159.78;5024794;28;20217;-82
2022/02/15 07:34:50;;;;;;;15.77;11.40;;;;;;;6.73;75.46;100157.22;5025007;28;20211;-80
2022/02/15 07:37:17;;;;;;;17.93;11.40;;;;;;;6.75;75.35;100158.00;5021283;28;20619;-80
2022/02/15 07:39:44;;;;;;;13.17;11.30;;;;;;;6.74;75.57;100165.06;5031615;28;20225;-82
2022/02/15 07:42:12;;;;;;;16.17;12.03;;;;;;;6.75;75.37;100168.56;5036199;28;20211;-82
2022/02/15 07:44:39;;;;;;;13.57;11.53;;;;;;;6.75;75.74;100177.38;5034096;28;20217;-82
2022/02/15 07:47:05;;;;;;;15.20;11.40;;;;;;;6.75;75.92;100171.22;5024215;28;20229;-79
2022/02/15 07:49:33;;;;;;;16.97;12.90;;;;;;;6.75;75.56;100169.44;5026054;28;20203;-78
2022/02/15 07:51:59;;;;;;;16.20;12.23;;;;;;;6.77;75.56;100185.22;5031568;28;20249;-81
2022/02/15 07:54:26;;;;;;;15.50;12.40;;;;;;;6.78;75.79;100179.00;5025779;28;20221;-81
2022/02/15 07:56:53;;;;;;;16.10;12.03;;;;;;;6.80;75.48;100177.13;5021573;28;20223;-81
2022/02/15 07:59:21;;;;;;;15.97;11.50;;;;;;;6.80;76.00;100183.28;5026129;28;20207;-80
2022/02/15 08:01:47;;;;;;;14.53;12.23;;;;;;;6.80;75.46;100188.56;5024948;28;20211;-82
2022/02/15 08:04:14;;;;;;;18.10;12.47;;;;;;;6.82;75.42;100180.50;5027202;28;20227;-78
2022/02/15 08:06:41;;;;;;;16.37;12.70;;;;;;;6.83;75.73;100182.22;5026785;28;20202;-78
2022/02/15 08:09:14;;;;;;;15.03;12.03;;;;;;;6.84;75.35;100186.59;5030261;28;20209;-78
2022/02/15 08:11:41;;;;;;;16.43;11.77;;;;;;;6.86;75.80;100187.34;5027760;28;20216;-83
2022/02/15 08:14:08;;;;;;;16.23;11.57;;;;;;;6.87;75.73;100181.13;5028505;28;20264;-83
2022/02/15 08:16:36;;;;;;;15.50;12.50;;;;;;;6.89;76.06;100198.63;5023899;28;20218;-79
2022/02/15 08:19:02;;;;;;;16.00;12.10;;;;;;;6.91;75.65;100204.69;5029174;28;20583;-81
2022/02/15 08:21:29;;;;;;;16.10;11.50;;;;;;;6.94;75.34;100201.03;5027710;28;20209;-81
2022/02/15 08:23:55;;;;;;;17.40;11.77;;;;;;;6.97;75.92;100200.88;5027164;28;20205;-80
2022/02/15 08:26:24;;;;;;;15.20;11.93;;;;;;;6.97;75.64;100212.31;5033255;28;20604;-80
2022/02/15 08:28:50;;;;;;;20.53;12.60;;;;;;;6.98;75.50;100213.16;5037136;28;20712;-80
2022/02/15 08:31:17;;;;;;;17.17;12.40;;;;;;;7.00;76.09;100211.25;5034033;28;20226;-82
2022/02/15 08:33:45;;;;;;;19.40;12.30;;;;;;;7.00;75.67;100208.63;5031696;28;20233;-82
2022/02/15 08:36:12;;;;;;;17.00;12.20;;;;;;;7.04;76.04;100211.94;5022001;28;20212;-79
2022/02/15 08:38:38;;;;;;;14.80;11.63;;;;;;;7.08;75.62;100202.91;5023928;28;20293;-81
2022/02/15 08:41:05;;;;;;;16.53;12.20;;;;;;;7.14;75.32;100205.22;5021243;28;20210;-82
2022/02/15 08:43:32;;;;;;;15.60;11.77;;;;;;;7.21;76.03;100206.56;5023212;28;20225;-83
2022/02/15 08:45:59;;;;;;;17.53;12.33;;;;;;;7.28;75.63;100216.75;5030384;28;20747;-84
2022/02/15 08:48:26;;;;;;;19.20;12.37;;;;;;;7.35;75.67;100206.63;5031883;28;20228;-80
2022/02/15 08:50:54;;;;;;;15.97;11.70;;;;;;;7.42;75.21;100210.66;5035114;28;20280;-81
2022/02/15 08:53:20;;;;;;;16.03;12.30;;;;;;;7.50;75.69;100219.03;5045216;28;20236;-82
2022/02/15 08:55:47;;;;;;;15.83;11.30;;;;;;;7.59;75.54;100223.78;5025310;28;20207;-82
2022/02/15 08:58:13;;;;;;;14.00;10.77;;;;;;;7.65;75.09;100225.22;5022508;28;20231;-80
2022/02/15 09:00:40;;;;;;;14.17;10.40;;;;;;;7.70;75.38;100217.88;5030751;28;20202;-81
2022/02/15 09:03:07;;;;;;;13.03;10.70;;;;;;;7.75;75.03;100222.88;5040234;28;20199;-80
2022/02/15 09:05:33;;;;;;;13.77;10.17;;;;;;;7.82;74.58;100227.75;5046161;28;20213;-80
2022/02/15 09:08:01;;;;;;;14.10;10.90;;;;;;;7.90;74.88;100225.47;5040044;28;20222;-82
2022/02/15 09:10:28;;;;;;;13.47;10.30;;;;;;;7.93;73.45;100227.09;5030593;28;20286;-81
2022/02/15 09:12:54;;;;;;;13.40;10.27;;;;;;;7.99;73.25;100224.09;5026274;28;20289;-81
2022/02/15 09:15:21;;;;;;;12.10;9.80;;;;;;;8.05;72.83;100221.09;5027490;28;21692;-81
2022/02/15 09:17:47;;;;;;;12.77;9.93;;;;;;;8.09;73.43;100229.69;5033169;28;20234;-80
2022/02/15 09:20:14;;;;;;;13.77;9.27;;;;;;;8.12;72.36;100217.09;5031168;28;20217;-82
2022/02/15 09:22:41;;;;;;;14.37;9.87;;;;;;;8.15;71.67;100232.00;5024935;28;20579;-82
2022/02/15 09:25:10;;;;;;;10.30;9.17;;;;;;;8.13;72.21;100226.78;5027991;28;20206;-81
2022/02/15 09:27:37;;;;;;;13.80;9.17;;;;;;;8.14;71.30;100227.63;5036427;28;20688;-81
2022/02/15 09:30:05;;;;;;;12.30;9.50;;;;;;;8.13;71.71;100221.47;5047317;28;20559;-81
2022/02/15 09:32:32;;;;;;;12.27;8.97;;;;;;;8.15;71.44;100219.59;5042286;28;20266;-82
2022/02/15 09:34:58;;;;;;;11.97;8.73;;;;;;;8.14;70.95;100227.63;5038368;28;20245;-81
2022/02/15 09:37:25;;;;;;;10.50;8.10;;;;;;;8.13;71.42;100239.19;5027341;28;20301;-82
2022/02/15 09:39:52;;;;;;;12.20;8.80;;;;;;;8.14;70.26;100240.91;5029080;28;20199;-81
2022/02/15 09:42:20;;;;;;;11.07;8.63;;;;;;;8.15;70.74;100235.50;5031488;28;20676;-82
2022/02/15 09:44:47;;;;;;;11.97;8.80;;;;;;;8.19;71.01;100237.03;5027422;28;20214;-82
2022/02/15 09:47:16;;;;;;;11.57;8.27;;;;;;;8.22;71.29;100233.34;5027325;28;20231;-80
2022/02/15 09:49:49;;;;;;;11.23;8.13;;;;;;;8.23;70.81;100243.88;5026279;28;20234;-80
2022/02/15 09:52:18;;;;;;;11.17;8.07;;;;;;;8.25;70.50;100247.25;5024721;28;20202;-81
2022/02/15 09:54:46;;;;;;;11.83;8.27;;;;;;;8.22;70.01;100241.31;5025371;28;20579;-81
2022/02/15 09:57:13;;;;;;;13.57;8.80;;;;;;;8.23;70.26;100249.16;5042077;28;20610;-81
2022/02/15 09:59:41;;;;;;;10.30;7.53;;;;;;;8.23;70.25;100249.16;5034889;28;20206;-81
2022/02/15 10:02:10;;;;;;;11.33;7.90;;;;;;;8.25;70.27;100254.34;5048251;28;20205;-81
2022/02/15 10:04:37;;;;;;;8.70;6.73;;;;;;;8.23;70.56;100262.44;5037024;28;20218;-82
2022/02/15 10:07:06;;;;;;;8.67;6.20;;;;;;;8.24;70.12;100261.47;5018275;28;20230;-82
2022/02/15 10:09:33;;;;;;;9.03;6.50;;;;;;;8.26;70.30;100264.03;5027626;28;20216;-82
2022/02/15 10:12:05;;;;;;;8.33;5.97;;;;;;;8.27;69.89;100268.38;5036945;28;20206;-82
2022/02/15 10:14:32;;;;;;;9.93;6.47;;;;;;;8.30;70.40;100270.88;5038207;28;20226;-81
2022/02/15 10:16:59;;;;;;;9.40;6.90;;;;;;;8.32;69.97;100269.00;5034297;28;20222;-82
2022/02/15 10:19:28;;;;;;;8.70;6.67;;;;;;;8.34;69.64;100281.25;5017269;28;20213;-81
2022/02/15 10:21:56;;;;;;;7.67;6.67;;;;;;;8.36;69.73;100265.22;5023428;28;20568;-82
2022/02/15 10:24:23;;;;;;;9.23;6.37;;;;;;;8.40;69.88;100265.91;5026536;28;20210;-82
2022/02/15 10:26:58;;;;;;;8.13;5.80;;;;;;;8.42;70.31;100261.38;5035709;28;20217;-82
2022/02/15 10:29:25;;;;;;;7.97;6.13;;;;;;;8.44;70.14;100265.59;5039611;28;20574;-82
2022/02/15 10:31:56;;;;;;;9.57;5.90;;;;;;;8.48;69.48;100258.31;5040654;28;20202;-81
2022/02/15 10:34:24;;;;;;;9.63;6.57;;;;;;;8.50;69.22;100259.94;5027197;28;20227;-82
2022/02/15 10:36:55;;;;;;;6.93;6.33;;;;;;;8.53;69.65;100256.25;5026066;28;20234;-82
2022/02/15 10:39:22;;;;;;;7.27;6.33;;;;;;;8.56;69.64;100272.84;5028815;28;20214;-82
2022/02/15 10:41:49;;;;;;;8.93;6.93;;;;;;;8.54;69.00;100277.38;5029788;28;20203;-80
2022/02/15 10:44:16;;;;;;;9.97;6.90;;;;;;;8.56;68.71;100278.16;5027222;28;20209;-81
2022/02/15 10:46:42;;;;;;;9.80;7.57;;;;;;;8.58;68.66;100286.03;5027171;28;20207;-81
2022/02/15 10:49:10;;;;;;;8.73;7.17;;;;;;;8.59;68.57;100282.44;5023884;28;20212;-80
2022/02/15 10:51:39;;;;;;;10.13;8.20;;;;;;;8.59;68.58;100271.81;5027119;28;20203;-82
2022/02/15 10:54:10;;;;;;;10.23;9.13;;;;;;;8.61;68.54;100280.50;5029577;28;20233;-82
2022/02/15 10:56:41;;;;;;;11.90;9.80;;;;;;;8.64;68.60;100283.81;5038395;28;20698;-82
2022/02/15 10:59:08;;;;;;;10.83;9.73;;;;;;;8.68;68.12;100289.81;5037556;28;20210;-81
2022/02/15 11:01:35;;;;;;;11.77;8.90;;;;;;;8.70;68.36;100285.25;5028076;28;20294;-82
2022/02/15 11:04:03;;;;;;;11.73;9.20;;;;;;;8.70;68.79;100280.81;5039562;28;20258;-82
2022/02/15 11:06:31;;;;;;;10.10;8.20;;;;;;;8.73;67.81;100285.09;5020093;28;20572;-81
2022/02/15 11:09:03;;;;;;;11.63;8.40;;;;;;;8.74;68.03;100275.31;5027310;28;20258;-83
2022/02/15 11:11:45;;;;;;;13.13;9.57;;;;;;;8.74;67.99;100291.25;5027598;28;20227;-82
2022/02/15 11:14:12;;;;;;;10.93;9.50;;;;;;;8.70;68.33;100278.16;5029319;28;20210;-83
2022/02/15 11:16:41;;;;;;;12.43;9.37;;;;;;;8.69;67.54;100278.25;5033622;28;20211;-82
2022/02/15 11:19:10;;;;;;;13.43;8.73;;;;;;;8.60;67.48;100284.97;5030275;28;20210;-82
2022/02/15 11:21:37;;;;;;;8.43;7.43;;;;;;;8.58;67.29;100278.06;5027311;28;20572;-82
2022/02/15 11:24:09;;;;;;;9.93;9.00;;;;;;;8.56;67.58;100282.59;5043385;28;20201;-81
2022/02/15 11:26:40;;;;;;;10.83;7.70;;;;;;;8.57;67.71;100279.00;5047653;28;20210;-81
2022/02/15 11:29:08;;;;;;;8.67;6.90;;;;;;;8.57;67.75;100279.88;5025208;28;20890;-82
2022/02/15 11:31:36;;;;;;;10.67;9.50;;;;;;;8.55;67.72;100281.75;5026536;28;20233;-82
2022/02/15 11:34:04;;;;;;;19.23;13.80;;;;;;;8.59;67.20;100282.44;5029989;28;20223;-81
2022/02/15 11:36:31;;;;;;;14.90;11.13;;;;;;;8.63;68.33;100279.47;5046370;28;20209;-82
2022/02/15 11:38:59;;;;;;;16.97;12.63;;;;;;;8.68;67.69;100277.38;5027130;28;20657;-81
2022/02/15 11:41:29;;;;;;;14.57;10.43;;;;;;;8.74;68.48;100278.81;5045911;28;20201;-83
2022/02/15 11:43:57;;;;;;;14.90;12.27;;;;;;;8.79;68.33;100273.22;5037195;28;20717;-81
2022/02/15 11:46:31;;;;;;;21.07;14.37;;;;;;;8.78;68.11;100271.53;5025127;28;20220;-82
2022/02/15 11:49:09;;;;;;;22.50;15.77;;;;;;;8.78;67.26;100266.22;5032619;28;20594;-81
2022/02/15 11:51:36;;;;;;;19.93;13.23;;;;;;;8.78;67.69;100267.03;5024222;28;20202;-82
2022/02/15 11:54:04;;;;;;;29.67;17.40;;;;;;;8.83;67.58;100270.28;5027326;28;20253;-82
2022/02/15 11:56:32;;;;;;;15.37;11.67;;;;;;;8.90;68.10;100274.28;5027795;28;20202;-82
2022/02/15 11:58:59;;;;;;;18.20;13.73;;;;;;;8.98;68.19;100279.94;5025261;28;20564;-82
2022/02/15 12:01:28;;;;;;;17.80;13.10;;;;;;;9.10;67.36;100272.16;5021177;28;20210;-81
2022/02/15 12:03:56;;;;;;;22.00;14.60;;;;;;;9.18;67.76;100269.84;5020752;28;20207;-82
2022/02/15 12:06:34;;;;;;;20.97;14.83;;;;;;;9.18;67.00;100268.06;5021555;28;20210;-81
2022/02/15 12:09:01;;;;;;;19.17;14.13;;;;;;;9.20;66.82;100273.28;5030250;28;20224;-81
2022/02/15 12:11:34;;;;;;;18.90;13.70;;;;;;;9.22;66.53;100274.88;5028674;28;20210;-81
2022/02/15 12:14:09;;;;;;;17.30;12.97;;;;;;;9.20;66.02;100268.81;5027008;28;20223;-81
2022/02/15 12:16:43;;;;;;;17.30;13.43;;;;;;;9.20;65.60;100275.94;5022329;28;20216;-81
2022/02/15 12:19:10;;;;;;;24.17;18.70;;;;;;;9.15;65.74;100264.72;5033743;28;20193;-80
2022/02/15 12:21:40;;;;;;;18.30;14.07;;;;;;;9.13;65.92;100267.53;5023380;28;20207;-81
2022/02/15 12:24:08;;;;;;;20.10;15.20;;;;;;;9.11;65.36;100271.22;5032993;28;20260;-81
2022/02/15 12:26:40;;;;;;;19.87;15.40;;;;;;;9.07;65.31;100275.00;5031568;28;20216;-81
2022/02/15 12:29:07;;;;;;;17.13;13.77;;;;;;;9.02;65.90;100254.91;5022566;28;20264;-81
2022/02/15 12:31:34;;;;;;;14.00;12.50;;;;;;;9.00;65.94;100250.63;5047942;28;20220;-81
2022/02/15 12:34:01;;;;;;;18.23;14.00;;;;;;;8.99;65.38;100259.53;5025337;28;20214;-81
2022/02/15 12:36:28;;;;;;;14.93;12.20;;;;;;;8.99;66.16;100257.75;5016521;28;20222;-82
2022/02/15 12:38:55;;;;;;;15.63;13.33;;;;;;;9.01;65.21;100255.00;5030033;28;20277;-81
2022/02/15 12:41:23;;;;;;;17.63;13.60;;;;;;;9.01;65.77;100255.00;5018898;28;20218;-81
2022/02/15 12:43:58;;;;;;;17.27;12.27;;;;;;;9.02;65.41;100249.59;5022993;28;20241;-81
2022/02/15 12:46:24;;;;;;;16.57;12.40;;;;;;;9.02;65.87;100252.25;5023541;28;20221;-81
2022/02/15 12:48:51;;;;;;;15.20;10.63;;;;;;;9.05;65.78;100244.09;5032713;28;20232;-81
2022/02/15 12:51:18;;;;;;;13.73;11.97;;;;;;;9.08;65.84;100244.84;5028639;28;20220;-81
2022/02/15 12:53:49;;;;;;;12.53;11.23;;;;;;;9.11;65.14;100248.16;5040319;28;20622;-81
2022/02/15 12:56:15;;;;;;;14.07;11.63;;;;;;;9.08;64.66;100239.53;5021721;28;20234;-82
2022/02/15 12:58:46;;;;;;;14.33;12.67;;;;;;;9.05;65.11;100246.75;5022844;28;20235;-81
2022/02/15 13:01:15;;;;;;;17.30;13.63;;;;;;;9.02;64.46;100238.09;5035016;28;20222;-81
2022/02/15 13:03:45;;;;;;;19.27;14.80;;;;;;;9.02;64.93;100243.41;5017461;28;20218;-81
2022/02/15 13:06:12;;;;;;;14.73;12.77;;;;;;;9.01;64.74;100242.56;5019656;28;20265;-81
2022/02/15 13:08:46;;;;;;;15.13;12.43;;;;;;;9.01;64.58;100241.72;5034185;28;20595;-81
2022/02/15 13:11:13;;;;;;;17.13;13.07;;;;;;;9.01;65.42;100239.06;5036524;28;20834;-82
2022/02/15 13:13:41;;;;;;;13.13;11.77;;;;;;;9.01;65.12;100239.91;5034445;28;20219;-81
2022/02/15 13:16:09;;;;;;;14.43;12.40;;;;;;;9.01;64.78;100239.91;5027503;28;20238;-81
2022/02/15 13:18:48;;;;;;;15.27;11.30;;;;;;;9.00;65.15;100246.16;5036690;28;20596;-81
2022/02/15 13:21:16;;;;;;;13.00;11.57;;;;;;;8.99;64.88;100243.59;5014762;28;20213;-80
2022/02/15 13:23:56;;;;;;;15.73;13.00;;;;;;;8.97;64.70;100240.19;5027718;28;20210;-81
2022/02/15 13:26:33;;;;;;;17.90;12.53;;;;;;;8.95;65.22;100242.97;5020470;28;20209;-81
2022/02/15 13:28:59;;;;;;;13.27;11.87;;;;;;;8.94;65.50;100240.41;5033544;28;20202;-82
2022/02/15 13:31:26;;;;;;;14.30;12.17;;;;;;;8.94;65.56;100246.56;5034486;28;20676;-81
2022/02/15 13:33:56;;;;;;;13.07;11.57;;;;;;;8.95;65.68;100242.97;5029692;28;20270;-82
2022/02/15 13:36:33;;;;;;;13.10;11.80;;;;;;;8.94;65.77;100235.94;5030582;28;20227;-81
2022/02/15 13:39:00;;;;;;;11.40;10.20;;;;;;;8.96;65.76;100235.81;5032106;28;20199;-81
2022/02/15 13:41:27;;;;;;;13.17;11.87;;;;;;;8.97;65.72;100242.84;5029856;28;20309;-80
2022/02/15 13:43:57;;;;;;;9.43;8.43;;;;;;;8.98;65.92;100236.59;5030453;28;20209;-82
2022/02/15 13:46:27;;;;;;;7.97;7.17;;;;;;;8.97;65.41;100233.06;5030484;28;20217;-81
2022/02/15 13:48:56;;;;;;;9.87;7.70;;;;;;;8.97;65.02;100234.88;5031539;28;20312;-80
2022/02/15 13:51:22;;;;;;;8.63;7.47;;;;;;;8.96;65.21;100227.84;5030794;28;20211;-79
2022/02/15 13:53:49;;;;;;;9.27;7.77;;;;;;;8.92;64.86;100223.72;5033765;28;20218;-81
2022/02/15 13:56:15;;;;;;;8.37;6.83;;;;;;;8.93;65.10;100220.13;5034701;28;20256;-81
2022/02/15 13:58:42;;;;;;;8.07;7.27;;;;;;;8.94;65.54;100214.72;5029888;28;20608;-81
2022/02/15 14:01:08;;;;;;;8.03;7.10;;;;;;;8.93;65.05;100214.81;5028702;28;20206;-81
2022/02/15 14:03:35;;;;;;;7.13;6.40;;;;;;;8.93;64.90;100207.69;5024030;28;20273;-82
2022/02/15 14:06:03;;;;;;;9.27;6.73;;;;;;;8.93;64.70;100202.38;5029644;28;20213;-81
2022/02/15 14:08:29;;;;;;;7.73;6.93;;;;;;;8.94;65.08;100204.09;5026192;28;20231;-81
2022/02/15 14:10:56;;;;;;;8.43;7.00;;;;;;;8.95;65.00;100199.63;5035835;28;20202;-82
2022/02/15 14:13:22;;;;;;;8.70;6.57;;;;;;;8.94;64.17;100196.13;5032298;28;20764;-81
2022/02/15 14:15:49;;;;;;;8.10;6.53;;;;;;;8.95;64.24;100192.50;5028948;28;20237;-80
2022/02/15 14:18:15;;;;;;;8.03;6.63;;;;;;;8.93;64.66;100188.25;5031025;28;20226;-80
2022/02/15 14:20:42;;;;;;;8.03;7.20;;;;;;;8.90;64.28;100197.25;5036008;28;20206;-81
2022/02/15 14:23:10;;;;;;;9.03;7.93;;;;;;;8.89;63.66;100192.88;5030877;28;20205;-81
2022/02/15 14:25:36;;;;;;;9.67;8.17;;;;;;;8.88;64.31;100192.97;5034199;28;20213;-80
2022/02/15 14:28:04;;;;;;;11.23;8.90;;;;;;;8.87;64.05;100184.16;5041611;28;20234;-81
2022/02/15 14:30:30;;;;;;;9.67;8.73;;;;;;;8.87;63.78;100178.00;5053502;28;20216;-81
2022/02/15 14:32:58;;;;;;;12.37;8.90;;;;;;;8.88;63.59;100177.06;5028643;28;20213;-82
2022/02/15 14:35:26;;;;;;;12.00;8.57;;;;;;;8.90;64.02;100185.78;5033585;28;20562;-81
2022/02/15 14:37:53;;;;;;;9.07;8.00;;;;;;;8.89;63.63;100195.53;5025342;28;20229;-81
2022/02/15 14:40:22;;;;;;;10.13;7.87;;;;;;;8.90;63.78;100189.28;5027609;28;20206;-81
2022/02/15 14:42:48;;;;;;;8.97;7.53;;;;;;;8.89;63.23;100190.22;5024667;28;20206;-81
2022/02/15 14:45:15;;;;;;;9.10;8.07;;;;;;;8.88;63.24;100185.88;5031046;28;20328;-81
2022/02/15 14:47:44;;;;;;;8.53;7.57;;;;;;;8.90;63.59;100191.94;5028602;28;20318;-81
2022/02/15 14:50:12;;;;;;;9.07;7.40;;;;;;;8.90;63.20;100188.44;5033245;28;20208;-81
2022/02/15 14:52:39;;;;;;;9.17;7.33;;;;;;;8.88;63.28;100196.50;5021699;28;20214;-83
2022/02/15 14:55:07;;;;;;;8.13;6.37;;;;;;;8.83;62.74;100195.06;5020858;28;20227;-82
2022/02/15 14:57:35;;;;;;;8.40;7.53;;;;;;;8.83;63.40;100189.75;5040108;28;20314;-82
2022/02/15 15:00:03;;;;;;;7.23;6.53;;;;;;;8.82;63.20;100183.59;5035393;28;20212;-83
2022/02/15 15:02:30;;;;;;;9.00;6.37;;;;;;;8.79;62.33;100185.59;5043442;28;20232;-83
2022/02/15 15:04:57;;;;;;;8.17;6.90;;;;;;;8.76;62.61;100186.66;5047741;28;20576;-82
2022/02/15 15:07:24;;;;;;;7.73;6.93;;;;;;;8.68;61.76;100180.97;5040700;28;20308;-82
2022/02/15 15:09:50;;;;;;;8.00;6.67;;;;;;;8.62;61.91;100203.44;5053803;28;20267;-81
2022/02/15 15:12:17;;;;;;;8.70;7.30;;;;;;;8.60;61.73;100201.81;5039704;28;20217;-82
2022/02/15 15:14:45;;;;;;;8.80;7.30;;;;;;;8.56;61.91;100195.00;5047811;28;20208;-83
2022/02/15 15:17:11;;;;;;;9.27;7.40;;;;;;;8.56;61.96;100195.88;5055348;28;20661;-83
2022/02/15 15:19:38;;;;;;;7.80;7.00;;;;;;;8.53;62.06;100195.19;5035857;28;20782;-82
2022/02/15 15:22:07;;;;;;;8.70;7.37;;;;;;;8.49;62.36;100185.72;5034735;28;20204;-83
2022/02/15 15:24:34;;;;;;;10.47;7.33;;;;;;;8.46;62.58;100180.59;5036647;28;20223;-81
2022/02/15 15:27:01;;;;;;;7.87;6.80;;;;;;;8.42;62.68;100176.44;5037366;28;20722;-83
2022/02/15 15:29:27;;;;;;;7.93;7.13;;;;;;;8.39;63.10;100169.53;5035167;28;20330;-83
2022/02/15 15:31:55;;;;;;;8.40;7.53;;;;;;;8.39;62.99;100166.88;5055082;28;20212;-81
2022/02/15 15:34:22;;;;;;;8.30;7.47;;;;;;;8.37;64.02;100167.91;5055004;28;20211;-84
2022/02/15 15:36:48;;;;;;;9.10;7.87;;;;;;;8.35;63.29;100163.56;5054786;28;20225;-83
2022/02/15 15:39:15;;;;;;;10.23;7.43;;;;;;;8.33;63.50;100161.94;5047267;28;20202;-82
2022/02/15 15:41:42;;;;;;;10.90;7.43;;;;;;;8.30;63.82;100157.63;5038230;28;20206;-83
2022/02/15 15:44:09;;;;;;;7.90;7.10;;;;;;;8.28;64.13;100156.00;5045794;28;20209;-81
2022/02/15 15:46:36;;;;;;;7.83;6.60;;;;;;;8.25;63.90;100159.72;5039895;28;20288;-80
2022/02/15 15:49:04;;;;;;;8.77;7.00;;;;;;;8.24;64.11;100157.19;5053315;28;20202;-83
2022/02/15 15:51:31;;;;;;;10.83;6.90;;;;;;;8.20;63.87;100147.69;5038232;28;20314;-84
2022/02/15 15:53:58;;;;;;;9.07;6.57;;;;;;;8.17;64.82;100151.38;5047493;28;20289;-83
2022/02/15 15:56:28;;;;;;;9.07;6.47;;;;;;;8.15;63.95;100144.47;5054197;28;20236;-83
2022/02/15 15:58:55;;;;;;;7.53;6.07;;;;;;;8.11;64.37;100135.84;5055299;28;20718;-84
2022/02/15 16:01:22;;;;;;;8.00;5.83;;;;;;;8.08;64.38;100136.00;5054446;28;20210;-84
2022/02/15 16:03:48;;;;;;;7.13;5.43;;;;;;;8.05;64.11;100133.56;5044320;28;20206;-83
2022/02/15 16:06:16;;;;;;;6.27;5.43;;;;;;;8.02;63.70;100133.75;5036511;28;20194;-82
2022/02/15 16:08:42;;;;;;;6.47;5.20;;;;;;;7.99;64.22;100131.28;5038714;28;20233;-81
2022/02/15 16:11:09;;;;;;;6.77;5.50;;;;;;;7.95;64.68;100141.22;5054548;28;20209;-82
2022/02/15 16:13:36;;;;;;;6.17;4.90;;;;;;;7.96;64.44;100142.06;5054381;28;20207;-83
2022/02/15 16:16:03;;;;;;;6.47;5.13;;;;;;;7.95;64.11;100150.97;5055101;28;20232;-83
2022/02/15 16:18:29;;;;;;;5.63;4.87;;;;;;;7.92;64.50;100151.16;5054428;28;20233;-83
2022/02/15 16:20:56;;;;;;;8.63;5.53;;;;;;;7.88;63.75;100152.31;5055022;28;20197;-84
2022/02/15 16:23:24;;;;;;;6.40;5.30;;;;;;;7.86;64.46;100146.25;5054301;28;20566;-83
2022/02/15 16:25:51;;;;;;;6.60;5.90;;;;;;;7.82;64.02;100144.72;5050782;28;20289;-82
2022/02/15 16:28:18;;;;;;;5.10;4.53;;;;;;;7.76;63.47;100159.19;5038048;28;20228;-81
2022/02/15 16:30:55;;;;;;;6.63;5.67;;;;;;;7.73;63.95;100155.84;5053942;28;20874;-83
2022/02/15 16:33:22;;;;;;;5.47;4.93;;;;;;;7.72;64.19;100159.44;5053776;28;20299;-82
2022/02/15 16:35:48;;;;;;;7.07;6.33;;;;;;;7.66;64.00;100158.03;5040839;28;20225;-83
2022/02/15 16:38:15;;;;;;;6.13;5.47;;;;;;;7.63;63.90;100140.50;5033698;28;20724;-82
2022/02/15 16:40:43;;;;;;;6.70;5.20;;;;;;;7.62;64.22;100145.91;5033779;28;20202;-83
2022/02/15 16:43:09;;;;;;;6.30;4.77;;;;;;;7.57;63.39;100134.72;5033702;28;20732;-81
2022/02/15 16:45:36;;;;;;;5.17;4.50;;;;;;;7.51;63.28;100132.44;5033841;28;20273;-82
2022/02/15 16:48:03;;;;;;;5.07;3.90;;;;;;;7.48;63.52;100133.47;5044534;28;20220;-82
2022/02/15 16:50:30;;;;;;;4.20;3.80;;;;;;;7.43;62.94;100124.06;5035685;28;20201;-82
2022/02/15 16:52:57;;;;;;;5.10;4.00;;;;;;;7.39;63.08;100120.75;5033778;28;20210;-84
2022/02/15 16:55:24;;;;;;;3.30;3.00;;;;;;;7.38;62.81;100115.53;5033807;28;20206;-81
2022/02/15 16:57:52;;;;;;;6.67;3.77;;;;;;;7.33;62.07;100110.53;5017349;28;20701;-83
2022/02/15 17:00:18;;;;;;;4.47;4.07;;;;;;;7.27;62.18;100106.44;5014145;28;20203;-81
2022/02/15 17:02:45;;;;;;;4.13;3.03;;;;;;;7.22;62.52;100094.38;5014691;28;20210;-84
2022/02/15 17:05:11;;;;;;;6.27;4.33;;;;;;;7.19;61.35;100111.31;5018308;28;20285;-83
2022/02/15 17:07:38;;;;;;;8.47;4.37;;;;;;;7.13;61.72;100106.38;5017694;28;20227;-84
2022/02/15 17:10:05;;;;;;;5.33;3.10;;;;;;;7.11;61.40;100102.13;5018313;28;20217;-82
2022/02/15 17:12:32;;;;;;;5.57;3.97;;;;;;;7.09;62.06;100096.06;5017767;28;20207;-84
2022/02/15 17:15:00;;;;;;;4.87;3.90;;;;;;;7.08;62.03;100097.84;5018008;28;20210;-82
2022/02/15 17:17:26;;;;;;;4.50;3.17;;;;;;;7.07;61.08;100105.88;5017167;28;20399;-83
2022/02/15 17:19:53;;;;;;;6.53;3.47;;;;;;;7.06;62.01;100105.03;5017967;28;20594;-81
2022/02/15 17:22:20;;;;;;;5.53;3.60;;;;;;;7.03;61.68;100097.25;5017063;28;20609;-83
2022/02/15 17:24:46;;;;;;;4.30;3.60;;;;;;;7.03;62.04;100097.25;5025730;28;20206;-83
2022/02/15 17:27:15;;;;;;;5.47;3.90;;;;;;;7.01;62.49;100095.63;5036612;28;20229;-83
2022/02/15 17:29:41;;;;;;;5.40;3.50;;;;;;;6.99;62.16;100089.59;5037429;28;20210;-83
2022/02/15 17:32:11;;;;;;;5.47;4.00;;;;;;;6.96;62.84;100099.41;5038047;28;20198;-82
2022/02/15 17:34:39;;;;;;;4.47;3.30;;;;;;;6.93;62.33;100094.28;5037234;28;20206;-83
2022/02/15 17:37:05;;;;;;;4.07;3.40;;;;;;;6.90;62.71;100110.34;5036836;28;20605;-83
2022/02/15 17:39:32;;;;;;;3.43;2.70;;;;;;;6.87;62.63;100105.22;5037523;28;20218;-83
2022/02/15 17:41:59;;;;;;;6.30;3.00;;;;;;;6.90;62.87;100104.19;5036625;28;20222;-82
2022/02/15 17:44:26;;;;;;;4.00;2.90;;;;;;;6.86;62.80;100092.91;5035862;28;20210;-84
2022/02/15 17:46:53;;;;;;;4.10;2.70;;;;;;;6.85;62.44;100093.00;5037077;28;20246;-81
2022/02/15 17:49:21;;;;;;;5.23;2.63;;;;;;;6.84;62.62;100076.28;5036486;28;20680;-80
2022/02/15 17:51:47;;;;;;;3.80;2.90;;;;;;;6.80;62.74;100080.06;5036918;28;20274;-81
2022/02/15 17:54:14;;;;;;;3.53;2.57;;;;;;;6.74;62.73;100083.03;5037700;28;20216;-82
2022/02/15 17:56:40;;;;;;;4.80;3.37;;;;;;;6.72;62.34;100087.56;5035483;28;20226;-83
2022/02/15 17:59:07;;;;;;;6.50;3.60;;;;;;;6.72;62.26;100084.06;5037156;28;20251;-81